sensor_id;sensor_type;location;lat;lon;timestamp;P1;durP1;ratioP1;P2;durP2;ratioP2
76125;SDS011;65174;48.138;21.002;2022-11-18T00:00:19;24.15;;;10.15;;
76125;SDS011;65174;48.138;21.002;2022-11-18T00:03:20;23.40;;;9.93;;
76125;SDS011;65174;48.138;21.002;2022-11-18T00:06:24;27.73;;;9.80;;
76125;SDS011;65174;48.138;21.002;2022-11-18T00:09:28;20.37;;;9.13;;
76125;SDS011;65174;48.138;21.002;2022-11-18T00:12:30;23.67;;;8.47;;
76125;SDS011;65174;48.138;21.002;2022-11-18T00:15:58;28.35;;;9.70;;
76125;SDS011;65174;48.138;21.002;2022-11-18T00:19:10;22.30;;;9.30;;
76125;SDS011;65174;48.138;21.002;2022-11-18T00:22:12;26.40;;;9.60;;
76125;SDS011;65174;48.138;21.002;2022-11-18T00:25:15;24.27;;;8.70;;
76125;SDS011;65174;48.138;21.002;2022-11-18T00:28:17;20.87;;;8.53;;
76125;SDS011;65174;48.138;21.002;2022-11-18T00:31:19;28.33;;;9.38;;
76125;SDS011;65174;48.138;21.002;2022-11-18T00:34:21;25.55;;;9.00;;
76125;SDS011;65174;48.138;21.002;2022-11-18T00:37:23;22.55;;;8.27;;
76125;SDS011;65174;48.138;21.002;2022-11-18T00:40:25;18.80;;;7.85;;
76125;SDS011;65174;48.138;21.002;2022-11-18T00:43:27;16.27;;;8.30;;
76125;SDS011;65174;48.138;21.002;2022-11-18T00:46:29;21.17;;;8.95;;
76125;SDS011;65174;48.138;21.002;2022-11-18T00:49:30;19.25;;;9.10;;
76125;SDS011;65174;48.138;21.002;2022-11-18T00:52:32;22.27;;;8.80;;
76125;SDS011;65174;48.138;21.002;2022-11-18T00:55:34;17.90;;;7.97;;
76125;SDS011;65174;48.138;21.002;2022-11-18T00:58:36;17.43;;;8.53;;
76125;SDS011;65174;48.138;21.002;2022-11-18T01:01:39;16.45;;;8.68;;
76125;SDS011;65174;48.138;21.002;2022-11-18T01:04:41;19.83;;;8.23;;
76125;SDS011;65174;48.138;21.002;2022-11-18T01:07:43;17.25;;;7.38;;
76125;SDS011;65174;48.138;21.002;2022-11-18T01:10:45;22.73;;;8.60;;
76125;SDS011;65174;48.138;21.002;2022-11-18T01:13:49;19.80;;;8.97;;
76125;SDS011;65174;48.138;21.002;2022-11-18T01:16:53;22.58;;;10.88;;
76125;SDS011;65174;48.138;21.002;2022-11-18T01:19:56;18.13;;;9.38;;
76125;SDS011;65174;48.138;21.002;2022-11-18T01:22:58;20.48;;;9.20;;
76125;SDS011;65174;48.138;21.002;2022-11-18T01:26:02;19.40;;;9.47;;
76125;SDS011;65174;48.138;21.002;2022-11-18T01:29:06;15.03;;;8.33;;
76125;SDS011;65174;48.138;21.002;2022-11-18T01:32:09;18.27;;;9.50;;
76125;SDS011;65174;48.138;21.002;2022-11-18T01:35:25;27.92;;;10.32;;
76125;SDS011;65174;48.138;21.002;2022-11-18T01:38:27;22.35;;;9.98;;
76125;SDS011;65174;48.138;21.002;2022-11-18T01:41:29;18.90;;;9.57;;
76125;SDS011;65174;48.138;21.002;2022-11-18T01:47:55;22.00;;;9.80;;
76125;SDS011;65174;48.138;21.002;2022-11-18T01:51:01;26.65;;;9.50;;
76125;SDS011;65174;48.138;21.002;2022-11-18T01:54:08;62.47;;;10.02;;
76125;SDS011;65174;48.138;21.002;2022-11-18T01:57:19;54.53;;;10.67;;
76125;SDS011;65174;48.138;21.002;2022-11-18T02:00:23;17.93;;;9.30;;
76125;SDS011;65174;48.138;21.002;2022-11-18T02:03:25;16.40;;;8.98;;
76125;SDS011;65174;48.138;21.002;2022-11-18T02:06:27;14.95;;;8.55;;
76125;SDS011;65174;48.138;21.002;2022-11-18T02:09:29;37.63;;;9.60;;
76125;SDS011;65174;48.138;21.002;2022-11-18T02:12:31;36.72;;;9.15;;
76125;SDS011;65174;48.138;21.002;2022-11-18T02:15:38;33.20;;;10.37;;
76125;SDS011;65174;48.138;21.002;2022-11-18T02:18:53;48.67;;;10.40;;
76125;SDS011;65174;48.138;21.002;2022-11-18T02:29:23;35.20;;;10.20;;
76125;SDS011;65174;48.138;21.002;2022-11-18T02:32:32;13.57;;;7.80;;
76125;SDS011;65174;48.138;21.002;2022-11-18T02:35:42;20.48;;;9.32;;
76125;SDS011;65174;48.138;21.002;2022-11-18T02:38:47;19.55;;;8.90;;
76125;SDS011;65174;48.138;21.002;2022-11-18T02:41:55;19.23;;;9.45;;
76125;SDS011;65174;48.138;21.002;2022-11-18T02:44:59;18.87;;;9.20;;
76125;SDS011;65174;48.138;21.002;2022-11-18T02:48:07;12.73;;;7.90;;
76125;SDS011;65174;48.138;21.002;2022-11-18T02:51:11;13.07;;;7.40;;
76125;SDS011;65174;48.138;21.002;2022-11-18T02:54:18;13.07;;;7.60;;
76125;SDS011;65174;48.138;21.002;2022-11-18T02:58:22;11.95;;;7.53;;
76125;SDS011;65174;48.138;21.002;2022-11-18T03:03:28;14.43;;;7.77;;
76125;SDS011;65174;48.138;21.002;2022-11-18T03:08:04;33.67;;;8.33;;
76125;SDS011;65174;48.138;21.002;2022-11-18T03:13:17;19.17;;;9.43;;
76125;SDS011;65174;48.138;21.002;2022-11-18T04:13:51;144.82;;;10.63;;
76125;SDS011;65174;48.138;21.002;2022-11-18T04:18:54;133.35;;;10.10;;
76125;SDS011;65174;48.138;21.002;2022-11-18T04:23:56;276.87;;;12.33;;
76125;SDS011;65174;48.138;21.002;2022-11-18T04:27:59;266.67;;;12.33;;
76125;SDS011;65174;48.138;21.002;2022-11-18T04:33:01;186.75;;;10.48;;
76125;SDS011;65174;48.138;21.002;2022-11-18T07:41:30;18.93;;;8.47;;
76125;SDS011;65174;48.138;21.002;2022-11-18T07:46:07;24.37;;;8.57;;
76125;SDS011;65174;48.138;21.002;2022-11-18T07:50:41;48.08;;;9.80;;
76125;SDS011;65174;48.138;21.002;2022-11-18T11:18:37;43.83;;;15.57;;
76125;SDS011;65174;48.138;21.002;2022-11-18T11:22:38;50.27;;;15.97;;
76125;SDS011;65174;48.138;21.002;2022-11-18T12:28:29;30.13;;;12.63;;
76125;SDS011;65174;48.138;21.002;2022-11-18T12:33:31;19.05;;;10.35;;
76125;SDS011;65174;48.138;21.002;2022-11-18T12:38:33;28.67;;;12.20;;
76125;SDS011;65174;48.138;21.002;2022-11-18T18:18:19;7.13;;;4.77;;
76125;SDS011;65174;48.138;21.002;2022-11-18T23:58:55;11.80;;;6.87;;
